Time;durP1;ratioP1;P1;durP2;ratioP2;P2;SDS_P1;SDS_P2;PMS_P1;PMS_P2;Temp;Humidity;BMP_temperature;BMP_pressure;BME280_temperature;BME280_humidity;BME280_pressure;Samples;Min_cycle;Max_cycle;Signal;HPM_P1;HPM_P2
2022/12/16 00:01:11;;;;;;;65.90;26.90;;;;;;;-2.89;88.88;97759.80;103264;1290;138328;-72
2022/12/16 00:03:40;;;;;;;59.20;26.20;;;;;;;-2.90;88.70;97755.51;103399;1296;22590;-70
2022/12/16 00:06:08;;;;;;;62.20;27.20;;;;;;;-2.90;88.86;97746.70;103154;1290;138642;-70
2022/12/16 00:08:38;;;;;;;62.40;27.00;;;;;;;-2.91;88.68;97743.73;103347;1298;24252;-71
2022/12/16 00:11:06;;;;;;;60.20;27.40;;;;;;;-2.91;88.82;97744.77;103353;1291;22598;-70
2022/12/16 00:13:36;;;;;;;69.90;31.20;;;;;;;-2.90;88.79;97740.67;103398;1296;138276;-71
2022/12/16 00:16:09;;;;;;;57.10;27.50;;;;;;;-2.90;88.74;97734.36;103159;1312;24958;-70
2022/12/16 00:18:36;;;;;;;66.70;29.20;;;;;;;-2.91;88.62;97733.28;103493;1288;138459;-71
2022/12/16 00:21:04;;;;;;;65.10;28.30;;;;;;;-2.94;88.59;97736.23;103366;1290;22467;-71
2022/12/16 00:23:31;;;;;;;68.60;28.00;;;;;;;-2.96;88.40;97740.85;103173;1311;22490;-70
2022/12/16 00:25:58;;;;;;;63.30;28.30;;;;;;;-2.97;88.72;97746.44;103414;1297;138320;-70
2022/12/16 00:28:26;;;;;;;60.50;27.80;;;;;;;-2.97;88.86;97759.41;103228;1291;23872;-70
2022/12/16 00:30:55;;;;;;;66.80;29.10;;;;;;;-2.97;89.06;97765.05;103520;1304;139855;-70
2022/12/16 00:33:24;;;;;;;66.10;29.00;;;;;;;-2.96;88.98;97756.88;103229;1302;22477;-70
2022/12/16 00:35:51;;;;;;;63.60;28.10;;;;;;;-2.96;88.77;97737.92;103141;1288;138357;-70
2022/12/16 00:38:19;;;;;;;64.00;28.30;;;;;;;-2.95;88.97;97729.62;103671;1288;22481;-70
2022/12/16 00:40:46;;;;;;;63.60;28.40;;;;;;;-2.94;88.81;97718.91;103780;1290;22510;-71
2022/12/16 00:43:13;;;;;;;71.80;31.30;;;;;;;-2.94;89.28;97730.77;103832;1290;138349;-70
2022/12/16 00:45:40;;;;;;;60.00;26.50;;;;;;;-2.93;89.17;97732.83;103553;1290;25297;-70
2022/12/16 00:48:07;;;;;;;70.20;31.80;;;;;;;-2.92;89.00;97728.63;103442;1288;138946;-71
2022/12/16 00:50:34;;;;;;;68.60;28.50;;;;;;;-2.89;89.29;97726.14;103592;1288;24293;-71
2022/12/16 00:53:02;;;;;;;65.60;28.80;;;;;;;-2.89;89.22;97721.30;103067;1304;24190;-71
2022/12/16 00:55:31;;;;;;;69.80;32.00;;;;;;;-2.89;89.06;97726.93;103087;1312;138162;-70
2022/12/16 00:57:58;;;;;;;68.80;29.90;;;;;;;-2.90;88.74;97725.83;103261;1299;24274;-70
2022/12/16 01:00:25;;;;;;;66.70;30.40;;;;;;;-2.93;88.77;97717.91;103256;1286;140413;-70
2022/12/16 01:02:52;;;;;;;76.10;33.00;;;;;;;-2.95;88.81;97713.91;103274;1311;23114;-70
2022/12/16 01:05:25;;;;;;;66.80;30.80;;;;;;;-2.98;88.80;97719.76;103319;1282;25536;-71
2022/12/16 01:07:53;;;;;;;76.30;31.80;;;;;;;-3.02;88.92;97730.16;103284;1298;139617;-70
2022/12/16 01:10:22;;;;;;;74.50;31.70;;;;;;;-3.03;89.23;97729.70;103534;1286;22512;-70
2022/12/16 01:12:49;;;;;;;71.50;32.90;;;;;;;-3.02;89.53;97733.56;103226;1311;138343;-70
2022/12/16 01:15:17;;;;;;;64.30;29.70;;;;;;;-3.03;89.44;97727.98;103396;1288;25393;-70
2022/12/16 01:17:44;;;;;;;67.00;31.10;;;;;;;-3.04;89.25;97716.56;103331;1310;23348;-71
2022/12/16 01:20:12;;;;;;;68.30;31.70;;;;;;;-3.06;89.34;97708.59;103596;1280;23339;-71
2022/12/16 01:22:39;;;;;;;59.20;29.40;;;;;;;-3.08;89.47;97704.33;103302;1312;22478;-70
2022/12/16 01:25:07;;;;;;;67.50;30.70;;;;;;;-3.08;89.43;97696.14;103309;1288;138251;-70
2022/12/16 01:27:34;;;;;;;53.10;24.00;;;;;;;-3.08;89.63;97692.05;103343;1311;22964;-70
2022/12/16 01:30:01;;;;;;;63.20;29.00;;;;;;;-3.09;89.40;97674.64;103129;1288;139058;-70
2022/12/16 01:32:28;;;;;;;57.40;27.60;;;;;;;-3.12;89.45;97669.60;103184;1296;25360;-70
2022/12/16 01:34:56;;;;;;;63.50;28.10;;;;;;;-3.14;89.38;97663.90;103349;1288;25487;-71
2022/12/16 01:37:23;;;;;;;66.70;29.30;;;;;;;-3.16;89.67;97665.48;103215;1290;138131;-70
2022/12/16 01:39:50;;;;;;;59.60;27.30;;;;;;;-3.18;89.73;97669.45;103193;1311;22985;-71
2022/12/16 01:42:20;;;;;;;60.80;26.70;;;;;;;-3.20;89.87;97668.80;103339;1292;138944;-70
2022/12/16 01:44:49;;;;;;;58.00;26.70;;;;;;;-3.21;89.72;97662.02;103534;1304;22474;-70
2022/12/16 01:47:22;;;;;;;58.40;25.90;;;;;;;-3.23;89.80;97657.40;103490;1281;25328;-71
2022/12/16 01:49:57;;;;;;;60.10;27.00;;;;;;;-3.25;90.07;97654.75;103317;1302;138234;-71
2022/12/16 01:52:35;;;;;;;61.80;25.70;;;;;;;-3.26;90.05;97654.55;103331;1312;22502;-70
2022/12/16 01:55:15;;;;;;;62.10;26.30;;;;;;;-3.28;89.82;97648.01;103247;1297;138074;-70
2022/12/16 01:57:49;;;;;;;53.10;23.60;;;;;;;-3.28;90.05;97642.77;103199;1297;22599;-70
2022/12/16 02:00:16;;;;;;;59.40;26.20;;;;;;;-3.27;90.32;97650.80;103519;1304;138258;-70
2022/12/16 02:02:45;;;;;;;57.80;27.00;;;;;;;-3.25;90.36;97647.04;103715;1307;22605;-70
2022/12/16 02:05:19;;;;;;;60.80;26.90;;;;;;;-3.24;90.41;97642.23;103687;1288;22478;-71
2022/12/16 02:08:16;;;;;;;62.20;27.10;;;;;;;-3.22;90.24;97633.40;103194;1305;139028;-71
2022/12/16 02:10:43;;;;;;;59.90;25.50;;;;;;;-3.23;90.29;97629.25;103437;1303;22565;-71
2022/12/16 02:13:35;;;;;;;52.00;23.60;;;;;;;-3.25;90.53;97612.02;103259;1312;139990;-70
2022/12/16 02:16:11;;;;;;;57.20;25.20;;;;;;;-3.25;90.44;97602.31;104054;1288;23885;-70
2022/12/16 02:19:14;;;;;;;66.70;28.50;;;;;;;-3.27;90.35;97602.98;103142;1304;139487;-71
2022/12/16 02:22:05;;;;;;;59.10;26.60;;;;;;;-3.27;90.64;97617.59;103456;1313;22481;-71
2022/12/16 02:24:51;;;;;;;58.10;25.30;;;;;;;-3.28;90.66;97618.92;103256;1311;138594;-70
2022/12/16 02:27:47;;;;;;;55.70;24.20;;;;;;;-3.28;90.82;97608.52;103653;1289;24420;-70
2022/12/16 02:30:36;;;;;;;56.00;24.70;;;;;;;-3.29;90.82;97612.32;103331;1289;138482;-70
2022/12/16 02:33:37;;;;;;;56.40;24.30;;;;;;;-3.30;90.99;97614.02;103432;1312;24405;-70
2022/12/16 02:36:06;;;;;;;59.00;25.80;;;;;;;-3.29;90.79;97608.98;103865;1297;138393;-70
2022/12/16 02:38:42;;;;;;;52.10;23.10;;;;;;;-3.30;90.93;97615.59;104317;1304;22485;-70
2022/12/16 02:41:23;;;;;;;57.70;25.50;;;;;;;-3.29;91.17;97618.09;103667;1296;22479;-71
2022/12/16 02:43:52;;;;;;;58.70;26.00;;;;;;;-3.26;91.21;97617.83;103568;1313;138244;-70
2022/12/16 02:46:23;;;;;;;60.30;25.00;;;;;;;-3.24;91.13;97604.63;103530;1304;25528;-70
2022/12/16 02:48:50;;;;;;;53.80;23.70;;;;;;;-3.21;91.27;97593.32;103548;1289;138795;-70
2022/12/16 02:51:17;;;;;;;62.10;27.50;;;;;;;-3.19;91.10;97580.63;103490;1296;22487;-71
2022/12/16 02:53:47;;;;;;;51.00;22.10;;;;;;;-3.18;91.14;97569.86;103501;1288;23212;-71
2022/12/16 02:56:38;;;;;;;50.00;23.30;;;;;;;-3.19;90.91;97564.68;103265;1288;22500;-71
2022/12/16 02:59:17;;;;;;;53.30;25.80;;;;;;;-3.20;90.97;97557.55;103494;1288;22479;-71
2022/12/16 03:02:11;;;;;;;53.50;26.40;;;;;;;-3.21;90.90;97552.12;103518;1285;139146;-71
2022/12/16 03:04:44;;;;;;;46.40;22.20;;;;;;;-3.22;90.99;97553.29;104209;1295;22666;-71
2022/12/16 03:07:14;;;;;;;53.30;24.00;;;;;;;-3.24;91.10;97545.52;103081;1306;138244;-71
2022/12/16 03:09:44;;;;;;;51.80;23.80;;;;;;;-3.25;91.22;97540.63;103229;1311;22512;-70
2022/12/16 03:12:15;;;;;;;54.80;24.80;;;;;;;-3.25;91.02;97541.16;103463;1296;138883;-70
2022/12/16 03:14:46;;;;;;;54.20;24.80;;;;;;;-3.25;91.26;97540.13;103327;1297;22488;-70
2022/12/16 03:17:15;;;;;;;55.50;25.90;;;;;;;-3.25;91.49;97538.58;103631;1290;25208;-71
2022/12/16 03:19:45;;;;;;;;;;;;;;;-3.23;91.65;97543.71;106425;1303;139229;-71
2022/12/16 03:22:14;;;;;;;;;;;;;;;-3.22;91.63;97544.47;106672;1290;22348;-71
2022/12/16 03:24:42;;;;;;;45.30;22.10;;;;;;;-3.21;91.73;97543.83;106593;1294;124817;-71
2022/12/16 03:27:34;;;;;;;50.40;21.90;;;;;;;-3.20;91.69;97541.89;104630;1291;22539;-71
2022/12/16 03:30:10;;;;;;;47.60;22.60;;;;;;;-3.17;91.74;97537.64;103364;1289;140181;-70
2022/12/16 03:32:58;;;;;;;48.00;21.30;;;;;;;-3.15;91.67;97537.26;103385;1298;22552;-70
2022/12/16 03:35:39;;;;;;;49.00;22.50;;;;;;;-3.15;91.49;97539.19;103828;1304;22558;-74
2022/12/16 03:38:09;;;;;;;46.20;21.20;;;;;;;-3.15;91.70;97529.39;103468;1298;138437;-73
2022/12/16 03:40:40;;;;;;;46.30;21.60;;;;;;;-3.15;91.82;97516.41;103321;1304;22675;-70
2022/12/16 03:43:10;;;;;;;45.50;20.20;;;;;;;-3.13;91.66;97508.71;103328;1287;138272;-71
2022/12/16 03:45:40;;;;;;;44.10;20.20;;;;;;;-3.13;91.70;97498.59;103322;1289;22493;-71
2022/12/16 03:48:09;;;;;;;47.00;21.40;;;;;;;-3.12;91.90;97489.49;103262;1297;138568;-70
2022/12/16 03:50:38;;;;;;;45.60;20.90;;;;;;;-3.11;91.82;97493.64;103274;1307;22524;-70
2022/12/16 03:53:06;;;;;;;43.50;22.00;;;;;;;-3.11;91.91;97486.69;103690;1304;22492;-70
2022/12/16 03:55:33;;;;;;;44.70;20.40;;;;;;;-3.10;91.97;97485.84;103106;1296;139587;-70
2022/12/16 03:58:00;;;;;;;38.40;18.10;;;;;;;-3.11;91.77;97484.92;103447;1285;22479;-70
2022/12/16 04:00:27;;;;;;;40.10;19.50;;;;;;;-3.11;91.95;97478.90;103584;1285;138807;-71
2022/12/16 04:02:54;;;;;;;44.90;20.40;;;;;;;-3.12;91.93;97468.15;103662;1296;22489;-70
2022/12/16 04:05:22;;;;;;;40.20;21.10;;;;;;;-3.12;91.98;97451.86;103733;1295;22738;-71
2022/12/16 04:07:49;;;;;;;47.50;21.80;;;;;;;-3.13;92.17;97446.02;103419;1297;138356;-72
2022/12/16 04:24:17;;;;;;;41.80;20.60;;;;;;;-3.12;92.21;97443.69;103460;1295;22528;-70
2022/12/16 04:24:18;;;;;;;41.00;21.40;;;;;;;-3.11;92.44;97411.02;103641;1313;138909;-71
2022/12/16 04:29:32;;;;;;;37.30;17.70;;;;;;;-3.11;92.68;97412.67;103248;1289;23356;-70
2022/12/16 04:32:00;;;;;;;36.20;17.90;;;;;;;-3.12;92.63;97415.73;103248;1313;138412;-72
2022/12/16 04:34:28;;;;;;;34.30;17.60;;;;;;;-3.10;92.74;97419.06;103243;1283;22705;-71
